CheckWX is a tool to help pilots better visualize weather data.  It is not intended as a substitute for an official pre-flight weather briefing.

20:38:57 UTC

KSRQ METAR
Sarasota / Bradenton International Airport
Sarasota/Bradenton, Florida, USA
Current

46 mins ago

KSRQ 231953Z 28013KT 10SM CLR 27/14 A3005 RMK AO2 SLP175 T02720144
Observed
Apr-23 @ 19:53 UTC
Wind
  • 280° at 13 KTS
Visibility
10 SM
Flight Rules
VFR
Cloud Levels
  • Clear skies
Temperature
27°C / 81°F
Dewpoint
14°C / 57°F
Heat Index
27°C / 81°F
Humidity
45%
Altimeter
30.05" Hg
Pressure
1017.62 hPa
Previous

2 hours ago

KSRQ 231853Z 27012KT 10SM CLR 28/16 A3007 RMK AO2 WSHFT 1811 SLP180 T02780156
Observed
Apr-23 @ 18:53 UTC
Wind
  • 270° at 12 KTS
Visibility
10 SM
Flight Rules
VFR
Cloud Levels
  • Clear skies
Temperature
28°C / 82°F
Dewpoint
16°C / 61°F
Heat Index
28°C / 82°F
Humidity
48%
Altimeter
30.07" Hg
Pressure
1018.32 hPa
Previous

2 hours ago

KSRQ 231831Z 28012KT 10SM CLR 28/15 A3007 RMK AO2 WSHFT 1811 T02780150
Observed
Apr-23 @ 18:31 UTC
Wind
  • 280° at 12 KTS
Visibility
10 SM
Flight Rules
VFR
Cloud Levels
  • Clear skies
Temperature
28°C / 82°F
Dewpoint
15°C / 59°F
Heat Index
28°C / 82°F
Humidity
45%
Altimeter
30.07" Hg
Pressure
1018.32 hPa